Time;durP1;ratioP1;P1;durP2;ratioP2;P2;SDS_P1;SDS_P2;PMS_P1;PMS_P2;Temp;Humidity;BMP_temperature;BMP_pressure;BME280_temperature;BME280_humidity;BME280_pressure;Samples;Min_cycle;Max_cycle;Signal;HPM_P1;HPM_P2
2021/10/17 06:22:38;;;;;;;224.10;153.70;;;;;;;7.16;80.97;99936.78;113675;1202;71246;-90
2021/10/17 06:25:10;;;;;;;141.70;103.60;;;;;;;7.24;80.74;99934.98;117116;1192;22817;-87
2021/10/17 06:27:56;;;;;;;34.70;21.60;;;;;;;7.34;80.51;99936.91;117411;1192;22423;-89
2021/10/17 06:30:42;;;;;;;26.20;16.40;;;;;;;7.42;80.11;99939.34;118098;1192;22502;-90
2021/10/17 06:33:09;;;;;;;28.10;17.00;;;;;;;7.49;80.00;99936.52;117713;1191;136748;-90
2021/10/17 06:35:38;;;;;;;34.30;18.50;;;;;;;7.56;79.74;99936.28;116197;1191;23959;-90
2021/10/17 06:38:06;;;;;;;30.60;19.20;;;;;;;7.65;79.68;99936.96;116994;1195;23858;-90
2021/10/17 06:40:34;;;;;;;69.20;51.00;;;;;;;7.74;79.43;99930.77;116971;1188;136377;-89
2021/10/17 06:43:02;;;;;;;34.30;18.40;;;;;;;7.83;79.26;99933.12;116201;1196;22440;-91
2021/10/17 06:45:48;;;;;;;61.80;27.50;;;;;;;7.94;78.94;99930.21;116177;1195;137747;-88
2021/10/17 06:48:16;;;;;;;34.10;18.40;;;;;;;8.01;78.66;99925.52;116116;1196;22492;-90
2021/10/17 06:50:47;;;;;;;25.30;16.80;;;;;;;8.09;78.48;99928.37;116131;1196;136313;-87
2021/10/17 06:53:17;;;;;;;27.50;15.30;;;;;;;8.15;78.22;99930.61;116177;1196;22852;-89
2021/10/17 06:55:43;;;;;;;;;;;;;;;8.20;77.71;99933.19;116362;1196;22422;-90
2021/10/17 06:58:15;;;;;;;23.30;13.70;;;;;;;8.24;77.48;99931.05;116446;1195;122200;-91
2021/10/17 07:00:42;;;;;;;31.00;13.90;;;;;;;8.27;77.17;99930.26;116459;1196;23398;-92
2021/10/17 07:03:13;;;;;;;31.20;14.20;;;;;;;8.30;77.02;99930.59;116518;1195;138704;-91
2021/10/17 07:05:59;;;;;;;24.30;14.60;;;;;;;8.34;76.89;99932.75;116705;1196;23565;-93
2021/10/17 07:08:27;;;;;;;26.10;13.10;;;;;;;8.36;76.64;99932.49;116500;1196;22454;-94
2021/10/17 07:10:56;;;;;;;23.40;14.30;;;;;;;8.37;76.51;99934.06;116654;1196;137642;-92
2021/10/17 07:13:42;;;;;;;24.60;13.30;;;;;;;8.36;76.23;99935.46;116602;1196;22568;-92
2021/10/17 07:16:10;;;;;;;25.00;13.10;;;;;;;8.36;76.00;99933.88;116233;1195;137885;-93
2021/10/17 07:18:37;;;;;;;26.00;13.30;;;;;;;8.34;75.80;99936.95;116656;1195;22459;-94
2021/10/17 07:21:05;;;;;;;22.00;12.50;;;;;;;8.32;75.53;99935.90;116587;1189;138233;-93
2021/10/17 07:23:32;;;;;;;26.00;13.00;;;;;;;8.30;75.54;99939.45;116682;1195;22430;-93
2021/10/17 07:25:59;;;;;;;24.00;12.10;;;;;;;8.32;75.79;99937.02;116467;1195;24126;-92
2021/10/17 07:28:26;;;;;;;23.90;12.00;;;;;;;8.36;75.69;99940.19;116751;1193;138499;-92
2021/10/17 07:31:13;;;;;;;25.80;16.00;;;;;;;8.37;74.75;99939.98;116604;1193;23555;-92
2021/10/17 07:33:53;;;;;;;39.50;22.00;;;;;;;8.35;74.37;99938.70;116584;1192;138820;-93
2021/10/17 07:36:21;;;;;;;31.20;17.10;;;;;;;8.34;74.30;99938.30;117076;1185;22426;-93
2021/10/17 07:38:53;;;;;;;31.10;17.10;;;;;;;8.34;74.07;99938.41;116674;1193;138813;-93
2021/10/17 07:41:23;;;;;;;26.10;12.60;;;;;;;8.35;74.25;99941.58;116911;1188;22526;-93
2021/10/17 07:43:51;;;;;;;19.90;11.80;;;;;;;8.39;74.01;99943.45;116755;1193;23308;-92
2021/10/17 07:46:18;;;;;;;;;;;;;;;8.42;74.08;99943.86;116691;1193;137968;-91
2021/10/17 07:48:46;;;;;;;19.40;9.20;;;;;;;8.46;73.95;99944.36;116948;1188;22497;-93
2021/10/17 07:51:13;;;;;;;21.70;10.20;;;;;;;8.52;73.93;99944.38;116736;1192;138518;-90
2021/10/17 07:53:40;;;;;;;;;;;;;;;8.57;73.57;99943.31;116892;1193;22449;-90
2021/10/17 07:56:07;;;;;;;18.40;8.80;;;;;;;8.62;73.26;99941.55;116841;1191;22481;-92
2021/10/17 07:58:35;;;;;;;16.10;8.90;;;;;;;8.67;73.11;99939.36;116721;1193;138391;-92
2021/10/17 08:01:02;;;;;;;16.80;8.90;;;;;;;8.73;72.76;99940.27;116758;1193;22564;-93
2021/10/17 08:03:35;;;;;;;20.60;9.20;;;;;;;8.78;72.39;99941.44;116852;1193;138426;-92
2021/10/17 08:06:34;;;;;;;14.00;8.00;;;;;;;8.85;72.32;99941.59;116862;1193;22434;-92
2021/10/17 08:09:02;;;;;;;17.10;8.60;;;;;;;8.92;71.88;99938.81;116546;1193;137102;-91
2021/10/17 08:11:30;;;;;;;19.20;9.90;;;;;;;9.00;71.83;99934.55;116771;1193;22433;-91
2021/10/17 08:13:59;;;;;;;21.50;9.40;;;;;;;9.09;71.23;99933.27;116910;1193;22459;-92
2021/10/17 08:16:30;;;;;;;29.60;14.60;;;;;;;9.17;71.27;99933.18;116964;1188;136427;-93
2021/10/17 08:18:59;;;;;;;22.20;10.30;;;;;;;9.27;71.16;99934.20;116770;1193;22620;-90
2021/10/17 08:21:26;;;;;;;19.30;10.80;;;;;;;9.35;70.74;99934.17;116574;1189;136808;-90
2021/10/17 08:24:02;;;;;;;17.20;9.40;;;;;;;9.42;70.48;99931.26;116838;1191;22456;-91
2021/10/17 08:26:33;;;;;;;15.40;8.80;;;;;;;9.48;70.42;99931.40;116775;1193;22490;-93
2021/10/17 08:29:00;;;;;;;18.50;9.10;;;;;;;9.54;70.46;99931.08;116480;1193;137439;-91
2021/10/17 08:31:28;;;;;;;19.10;9.30;;;;;;;9.62;70.16;99928.30;116861;1190;22943;-91
2021/10/17 08:33:55;;;;;;;14.60;7.10;;;;;;;9.70;69.92;99928.83;116710;1193;137452;-93
2021/10/17 08:36:31;;;;;;;12.60;7.10;;;;;;;9.77;69.66;99928.27;116887;1193;23986;-89
2021/10/17 08:39:36;;;;;;;13.00;7.10;;;;;;;9.85;69.04;99924.65;116611;1193;138871;-92
2021/10/17 08:42:03;;;;;;;11.80;6.50;;;;;;;9.91;68.74;99923.70;116915;1188;25212;-92
2021/10/17 08:44:30;;;;;;;17.00;6.50;;;;;;;9.96;68.47;99923.52;116692;1192;22478;-93
2021/10/17 08:47:13;;;;;;;14.20;7.50;;;;;;;10.05;67.59;99926.02;116573;1193;138418;-91
2021/10/17 08:49:42;;;;;;;16.50;7.10;;;;;;;10.10;67.10;99926.54;116938;1193;22445;-92
2021/10/17 08:52:10;;;;;;;13.60;6.20;;;;;;;10.14;67.03;99923.06;116476;1193;138268;-92
2021/10/17 08:54:39;;;;;;;17.40;6.50;;;;;;;10.19;66.88;99923.52;116912;1189;22421;-89
2021/10/17 08:57:08;;;;;;;17.20;8.50;;;;;;;10.26;65.89;99924.95;116709;1193;138992;-92
2021/10/17 08:59:35;;;;;;;12.70;6.30;;;;;;;10.35;65.12;99927.66;116800;1193;22569;-92
2021/10/17 09:02:15;;;;;;;17.30;6.50;;;;;;;10.44;64.60;99926.23;116719;1193;22483;-89
2021/10/17 09:05:06;;;;;;;18.80;8.90;;;;;;;10.50;63.48;99925.42;116822;1193;136786;-92
2021/10/17 09:11:03;;;;;;;10.60;5.40;;;;;;;10.55;62.16;99922.70;116612;1193;136794;-94
2021/10/17 09:13:30;;;;;;;14.60;6.90;;;;;;;10.59;60.96;99922.98;116925;1191;22461;-90
2021/10/17 09:15:56;;;;;;;;;;;;;;;10.60;59.75;99922.64;116705;1185;138881;-91
2021/10/17 09:18:24;;;;;;;17.30;7.00;;;;;;;10.58;59.89;99917.23;117442;1190;23077;-91
2021/10/17 09:21:03;;;;;;;19.70;6.30;;;;;;;10.55;60.60;99917.42;117289;1190;137170;-94
2021/10/17 09:23:38;;;;;;;14.40;5.40;;;;;;;10.55;60.49;99911.81;117000;1190;22473;-91
2021/10/17 09:26:10;;;;;;;14.50;5.90;;;;;;;10.56;60.02;99911.99;117092;1190;22492;-92
2021/10/17 09:28:38;;;;;;;15.50;7.00;;;;;;;10.56;59.63;99912.48;117004;1190;136958;-93
2021/10/17 09:31:06;;;;;;;14.70;5.90;;;;;;;10.54;59.22;99911.03;117293;1187;23772;-93
2021/10/17 09:33:43;;;;;;;16.90;6.10;;;;;;;10.53;59.53;99910.20;117292;1190;136394;-92
2021/10/17 09:36:38;;;;;;;12.60;5.00;;;;;;;10.52;59.41;99905.23;117687;1190;22392;-90
2021/10/17 09:39:14;;;;;;;12.60;6.10;;;;;;;10.51;59.09;99901.41;117940;1190;136297;-93
2021/10/17 09:42:19;;;;;;;15.90;5.00;;;;;;;10.53;58.25;99903.29;116722;1190;22565;-91
2021/10/17 09:44:50;;;;;;;13.60;5.10;;;;;;;10.54;57.47;99900.67;116796;1191;22398;-93
2021/10/17 09:47:18;;;;;;;14.40;5.40;;;;;;;10.53;56.19;99902.45;117123;1175;136709;-92
2021/10/17 09:49:51;;;;;;;14.80;7.00;;;;;;;10.48;56.14;99901.35;116806;1191;22453;-93
2021/10/17 09:52:25;;;;;;;17.90;6.10;;;;;;;10.44;56.68;99903.39;116954;1184;137286;-90
2021/10/17 09:55:05;;;;;;;13.90;7.10;;;;;;;10.41;57.53;99904.12;117433;1190;22446;-91
2021/10/17 09:57:35;;;;;;;18.10;7.00;;;;;;;10.43;57.65;99907.42;116835;1191;137179;-92
2021/10/17 10:00:03;;;;;;;13.70;5.70;;;;;;;10.43;57.74;99903.16;117574;1190;22467;-91
2021/10/17 10:02:41;;;;;;;14.00;5.40;;;;;;;10.44;57.66;99906.84;117190;1190;23421;-92
2021/10/17 10:05:08;;;;;;;12.20;5.50;;;;;;;10.46;58.09;99903.34;117176;1184;136928;-92
2021/10/17 10:07:35;;;;;;;13.80;5.30;;;;;;;10.50;57.68;99898.77;117202;1189;22411;-91
2021/10/17 10:10:02;;;;;;;12.80;5.50;;;;;;;10.53;57.52;99901.11;117069;1184;135883;-91
2021/10/17 10:12:29;;;;;;;21.20;7.50;;;;;;;10.58;57.28;99901.98;116969;1191;23596;-92
2021/10/17 10:14:58;;;;;;;;;;;;;;;10.62;56.75;99899.17;116845;1190;22534;-91
2021/10/17 10:17:27;;;;;;;8.90;4.30;;;;;;;10.63;55.40;99895.23;116845;1187;123806;-92
2021/10/17 10:19:58;;;;;;;11.20;5.00;;;;;;;10.63;55.52;99892.72;117041;1190;22553;-92
2021/10/17 10:22:28;;;;;;;12.90;6.50;;;;;;;10.67;55.47;99891.23;116861;1187;137717;-93
2021/10/17 10:24:55;;;;;;;12.90;5.80;;;;;;;10.71;54.71;99891.01;116955;1190;22515;-93
2021/10/17 10:27:22;;;;;;;12.20;5.40;;;;;;;10.72;55.13;99886.56;116681;1184;137986;-92
2021/10/17 10:29:48;;;;;;;;;;;;;;;10.76;54.79;99890.72;116830;1190;22458;-92
2021/10/17 10:32:22;;;;;;;12.10;4.50;;;;;;;10.77;55.04;99886.60;117136;1188;22451;-91
2021/10/17 10:34:54;;;;;;;10.90;5.40;;;;;;;10.81;54.88;99887.70;117002;1182;137040;-91
2021/10/17 10:37:25;;;;;;;18.10;5.60;;;;;;;10.84;54.88;99889.25;117171;1175;22393;-92
2021/10/17 10:40:10;;;;;;;13.10;5.40;;;;;;;10.87;54.55;99892.67;116837;1190;137539;-89
2021/10/17 10:42:42;;;;;;;10.00;5.00;;;;;;;10.85;54.00;99886.42;117191;1190;24062;-93
2021/10/17 10:45:34;;;;;;;13.20;4.80;;;;;;;10.80;53.98;99886.54;116937;1188;137752;-92
2021/10/17 10:48:10;;;;;;;10.40;4.30;;;;;;;10.76;54.33;99883.73;117146;1190;22457;-88
2021/10/17 10:50:42;;;;;;;9.00;4.60;;;;;;;10.73;54.08;99877.11;116855;1184;23393;-92
2021/10/17 10:53:50;;;;;;;13.50;4.70;;;;;;;10.72;54.22;99880.29;116896;1190;136832;-94
2021/10/17 10:56:39;;;;;;;11.80;4.80;;;;;;;10.70;53.96;99878.58;116944;1188;23586;-92
2021/10/17 10:59:10;;;;;;;13.40;5.30;;;;;;;10.67;54.19;99876.48;116818;1190;136111;-92
2021/10/17 11:02:18;;;;;;;15.60;5.30;;;;;;;10.66;53.82;99877.55;117215;1190;23340;-93
2021/10/17 11:04:45;;;;;;;12.30;4.80;;;;;;;10.63;53.77;99876.58;116615;1190;135921;-91
2021/10/17 11:07:31;;;;;;;12.10;5.10;;;;;;;10.58;53.23;99877.63;116955;1178;22452;-91
2021/10/17 11:10:23;;;;;;;10.10;4.60;;;;;;;10.50;53.19;99877.05;116756;1184;137675;-91
2021/10/17 11:12:54;;;;;;;19.00;5.70;;;;;;;10.46;53.91;99873.09;117026;1190;23647;-91
2021/10/17 11:15:30;;;;;;;11.20;4.70;;;;;;;10.46;54.29;99871.19;117149;1189;137271;-91
2021/10/17 11:18:09;;;;;;;13.20;4.80;;;;;;;10.49;54.36;99869.11;117116;1188;23652;-91
2021/10/17 11:20:40;;;;;;;14.90;4.70;;;;;;;10.54;54.82;99869.18;117044;1190;22929;-92
2021/10/17 11:23:20;;;;;;;11.40;5.50;;;;;;;10.56;53.70;99862.52;117118;1190;137577;-93
2021/10/17 11:25:56;;;;;;;19.30;5.50;;;;;;;10.59;53.67;99861.63;116946;1190;22642;-94
2021/10/17 11:28:24;;;;;;;13.20;4.90;;;;;;;10.60;53.40;99859.79;116975;1190;137000;-91
2021/10/17 11:31:09;;;;;;;7.60;3.80;;;;;;;10.60;52.84;99853.09;117126;1190;22462;-94
2021/10/17 11:33:36;;;;;;;22.20;5.60;;;;;;;10.58;52.16;99852.89;117489;1190;135938;-92
2021/10/17 11:36:08;;;;;;;12.30;4.70;;;;;;;10.56;52.58;99851.73;117642;1190;22428;-93
2021/10/17 11:38:35;;;;;;;9.10;4.60;;;;;;;10.57;52.48;99851.84;117630;1190;22775;-92
2021/10/17 11:41:03;;;;;;;;;;;;;;;10.57;52.52;99848.85;117038;1188;137634;-91
2021/10/17 11:43:39;;;;;;;10.10;4.70;;;;;;;10.59;52.57;99852.86;116993;1188;22641;-92
2021/10/17 11:46:17;;;;;;;10.40;5.10;;;;;;;10.61;52.69;99846.40;116955;1184;136987;-93
2021/10/17 11:48:45;;;;;;;14.50;5.40;;;;;;;10.64;52.86;99852.23;117082;1190;22493;-93
2021/10/17 11:51:15;;;;;;;11.20;5.00;;;;;;;10.67;52.47;99851.73;117022;1190;136211;-93
2021/10/17 11:53:42;;;;;;;13.90;5.80;;;;;;;10.66;52.47;99846.77;116705;1187;24056;-91
2021/10/17 11:56:10;;;;;;;11.20;4.70;;;;;;;10.64;52.67;99847.33;116869;1187;22472;-92
2021/10/17 11:58:38;;;;;;;11.50;5.60;;;;;;;10.62;52.46;99849.98;116789;1190;137594;-94
2021/10/17 12:01:15;;;;;;;13.70;6.40;;;;;;;10.60;52.65;99845.79;116806;1190;22757;-92
2021/10/17 12:03:43;;;;;;;13.60;5.10;;;;;;;10.59;52.43;99845.88;116748;1191;136253;-91
2021/10/17 12:06:14;;;;;;;12.70;5.20;;;;;;;10.57;52.49;99846.39;116945;1191;22441;-92
2021/10/17 12:08:42;;;;;;;14.00;5.30;;;;;;;10.54;52.62;99847.55;116922;1190;22466;-93
2021/10/17 12:11:21;;;;;;;8.80;5.10;;;;;;;10.50;52.36;99851.86;116729;1191;136128;-91
2021/10/17 12:14:07;;;;;;;10.60;5.00;;;;;;;10.45;52.74;99844.64;116727;1190;22411;-93
2021/10/17 12:16:38;;;;;;;9.30;5.10;;;;;;;10.43;53.14;99845.95;116573;1190;138276;-92
2021/10/17 12:19:07;;;;;;;16.60;5.60;;;;;;;10.42;53.33;99842.08;117032;1190;22452;-92
2021/10/17 12:21:43;;;;;;;;;;;;;;;10.42;53.53;99843.28;116910;1190;138413;-94
2021/10/17 12:24:10;;;;;;;9.10;4.70;;;;;;;10.44;53.48;99843.59;116827;1190;22812;-90
2021/10/17 12:26:53;;;;;;;9.60;4.60;;;;;;;10.44;53.47;99844.50;116893;1190;22454;-90
2021/10/17 12:29:23;;;;;;;11.10;5.30;;;;;;;10.44;53.36;99838.46;116832;1190;137523;-93
2021/10/17 12:31:57;;;;;;;17.10;8.30;;;;;;;10.44;53.70;99839.39;117071;1187;22424;-91
2021/10/17 12:34:46;;;;;;;15.70;7.20;;;;;;;10.44;53.55;99839.22;116980;1190;137370;-91
2021/10/17 12:37:18;;;;;;;13.10;5.80;;;;;;;10.43;53.18;99843.95;116520;1184;24007;-91
2021/10/17 12:39:46;;;;;;;13.80;5.90;;;;;;;10.40;53.09;99844.05;116660;1190;137462;-92
2021/10/17 12:42:12;;;;;;;13.80;6.40;;;;;;;10.37;53.10;99840.77;116919;1190;22481;-93
2021/10/17 12:44:46;;;;;;;14.50;6.70;;;;;;;10.35;53.54;99843.08;116943;1190;22427;-92
2021/10/17 12:47:14;;;;;;;17.30;7.10;;;;;;;10.34;53.56;99839.13;117450;1190;138269;-91
2021/10/17 12:49:48;;;;;;;16.10;6.90;;;;;;;10.34;53.57;99839.67;118414;1190;22503;-90
2021/10/17 12:52:25;;;;;;;17.20;7.60;;;;;;;10.34;53.56;99839.79;117945;1188;136093;-90
2021/10/17 12:54:56;;;;;;;;;;;;;;;10.35;53.70;99838.17;116849;1190;23091;-89
2021/10/17 12:57:22;;;;;;;10.00;5.60;;;;;;;10.33;53.52;99839.52;116761;1190;123440;-92
2021/10/17 12:59:56;;;;;;;15.00;6.90;;;;;;;10.31;53.53;99838.86;117111;1188;23483;-92
2021/10/17 13:02:39;;;;;;;18.40;6.60;;;;;;;10.27;53.57;99835.38;116932;1190;22474;-91
2021/10/17 13:05:14;;;;;;;14.90;6.80;;;;;;;10.25;53.59;99835.88;117138;1188;136006;-92
2021/10/17 13:07:41;;;;;;;15.10;6.50;;;;;;;10.23;53.65;99834.39;117158;1190;24986;-93
2021/10/17 13:10:12;;;;;;;17.00;6.80;;;;;;;10.20;53.69;99831.94;117000;1184;137577;-91
2021/10/17 13:12:42;;;;;;;13.90;6.00;;;;;;;10.18;53.65;99836.86;117021;1190;23027;-94
2021/10/17 13:15:16;;;;;;;13.80;6.10;;;;;;;10.15;53.43;99835.86;116709;1184;137564;-92
2021/10/17 13:17:46;;;;;;;13.50;7.20;;;;;;;10.12;53.81;99830.95;116737;1190;23901;-92
2021/10/17 13:20:34;;;;;;;13.60;6.40;;;;;;;10.10;53.80;99835.39;116421;1191;22467;-94
2021/10/17 13:23:04;;;;;;;13.70;5.70;;;;;;;10.07;53.47;99832.85;116245;1191;137504;-95
2021/10/17 13:25:39;;;;;;;15.70;6.70;;;;;;;10.02;53.49;99834.89;116445;1191;22462;-92
2021/10/17 13:28:07;;;;;;;12.60;7.00;;;;;;;9.97;53.56;99831.02;116227;1191;137147;-92
2021/10/17 13:30:35;;;;;;;10.90;4.90;;;;;;;9.95;53.59;99836.01;116699;1191;22459;-93
2021/10/17 13:33:02;;;;;;;10.80;6.10;;;;;;;9.90;53.30;99841.38;116522;1184;24905;-94
2021/10/17 13:35:29;;;;;;;11.40;6.70;;;;;;;9.84;53.49;99842.35;116647;1184;137689;-91
2021/10/17 13:37:57;;;;;;;12.60;7.00;;;;;;;9.80;53.99;99841.70;116660;1191;22503;-92
2021/10/17 13:40:30;;;;;;;15.90;6.00;;;;;;;9.80;53.96;99840.60;116778;1191;137114;-92
2021/10/17 13:42:58;;;;;;;;;;;;;;;9.76;53.89;99839.98;116503;1191;22401;-93
2021/10/17 13:45:26;;;;;;;8.80;5.20;;;;;;;9.74;53.95;99839.45;116426;1184;124574;-93
2021/10/17 13:47:54;;;;;;;17.50;5.20;;;;;;;9.70;54.22;99842.14;116755;1184;22868;-91
2021/10/17 13:50:22;;;;;;;13.90;6.50;;;;;;;9.66;54.12;99836.63;116552;1191;23860;-93
2021/10/17 13:52:49;;;;;;;20.50;7.50;;;;;;;9.63;54.37;99836.70;116764;1189;137313;-93
2021/10/17 13:55:19;;;;;;;;;;;;;;;9.62;54.35;99835.09;116599;1190;22725;-91
2021/10/17 13:57:50;;;;;;;17.50;7.50;;;;;;;9.60;54.77;99834.18;116896;1188;122861;-89
2021/10/17 14:00:35;;;;;;;19.80;8.60;;;;;;;9.60;55.13;99835.65;117181;1190;22495;-92
2021/10/17 14:03:06;;;;;;;16.50;7.40;;;;;;;9.60;55.38;99836.36;116866;1175;26270;-92
2021/10/17 14:05:38;;;;;;;32.10;8.00;;;;;;;9.60;55.41;99835.55;116659;1190;135916;-94
2021/10/17 14:08:05;;;;;;;15.00;6.50;;;;;;;9.61;55.00;99836.75;116827;1190;22468;-94
2021/10/17 14:10:31;;;;;;;16.10;7.20;;;;;;;9.60;54.84;99837.45;116622;1188;136974;-91
2021/10/17 14:13:01;;;;;;;12.10;6.10;;;;;;;9.59;54.71;99834.82;117024;1184;22437;-91
2021/10/17 14:15:38;;;;;;;13.00;6.10;;;;;;;9.57;55.02;99837.12;116836;1190;137039;-90
2021/10/17 14:18:05;;;;;;;15.30;5.60;;;;;;;9.55;54.88;99838.54;116828;1190;23994;-92
2021/10/17 14:20:39;;;;;;;19.40;7.10;;;;;;;9.53;54.82;99841.34;116868;1176;22427;-93
2021/10/17 14:23:10;;;;;;;16.00;6.90;;;;;;;9.52;55.15;99844.98;117516;1191;137411;-93
2021/10/17 14:25:37;;;;;;;31.10;16.70;;;;;;;9.50;55.36;99842.89;117446;1189;22453;-92
2021/10/17 14:28:04;;;;;;;28.80;13.60;;;;;;;9.50;55.36;99844.36;116829;1190;136889;-92
2021/10/17 14:30:33;;;;;;;22.20;10.60;;;;;;;9.49;55.31;99840.58;117036;1187;22508;-93
2021/10/17 14:33:02;;;;;;;21.20;8.00;;;;;;;9.48;55.18;99844.41;117095;1190;23261;-91
2021/10/17 14:35:28;;;;;;;19.60;7.90;;;;;;;9.45;55.02;99847.46;116830;1190;138156;-92
2021/10/17 14:37:55;;;;;;;;;;;;;;;9.42;54.66;99849.34;117025;1190;22448;-91
2021/10/17 14:40:22;;;;;;;13.90;5.80;;;;;;;9.37;54.96;99848.61;116989;1184;123152;-93
2021/10/17 14:42:49;;;;;;;;;;;;;;;9.35;55.18;99849.42;117040;1190;22514;-93
2021/10/17 14:45:16;;;;;;;18.50;7.20;;;;;;;9.33;55.28;99851.55;116901;1190;22457;-93
2021/10/17 14:47:43;;;;;;;18.20;6.80;;;;;;;9.30;55.27;99853.19;116938;1190;136152;-91
2021/10/17 14:50:10;;;;;;;;;;;;;;;9.29;55.29;99858.48;116841;1190;22471;-92
2021/10/17 14:52:38;;;;;;;13.60;6.60;;;;;;;9.25;55.16;99852.05;116752;1184;123455;-90
2021/10/17 14:55:05;;;;;;;11.40;6.60;;;;;;;9.22;55.06;99852.71;117040;1190;22432;-92
2021/10/17 14:57:32;;;;;;;14.30;7.70;;;;;;;9.19;55.10;99854.27;116670;1189;137825;-92
2021/10/17 15:00:00;;;;;;;14.20;7.60;;;;;;;9.17;55.14;99856.02;116855;1190;22515;-91
2021/10/17 15:02:32;;;;;;;22.20;12.10;;;;;;;9.15;55.43;99853.27;116992;1188;22440;-92
2021/10/17 15:04:59;;;;;;;96.20;41.60;;;;;;;9.14;55.58;99854.23;116863;1184;136748;-92
2021/10/17 15:07:27;;;;;;;68.90;32.40;;;;;;;9.14;55.62;99857.87;116954;1189;22545;-92
2021/10/17 15:10:10;;;;;;;35.40;17.70;;;;;;;9.14;55.77;99860.47;116256;1190;136980;-92
2021/10/17 15:12:43;;;;;;;27.10;13.30;;;;;;;9.15;55.97;99859.45;116820;1190;22432;-91
2021/10/17 15:15:10;;;;;;;;;;;;;;;9.14;55.97;99862.01;116930;1189;22425;-92
2021/10/17 15:17:37;;;;;;;18.20;9.90;;;;;;;9.12;55.96;99863.36;116903;1189;123386;-93
2021/10/17 15:20:09;;;;;;;18.90;8.10;;;;;;;9.12;56.15;99870.33;116627;1192;22511;-92
2021/10/17 15:22:37;;;;;;;14.80;7.70;;;;;;;9.11;55.80;99870.56;116434;1192;138686;-92
2021/10/17 15:25:06;;;;;;;11.70;7.10;;;;;;;9.08;55.65;99868.35;116544;1192;22450;-92
2021/10/17 15:27:34;;;;;;;15.80;7.50;;;;;;;9.05;55.75;99874.16;116587;1192;138051;-92
2021/10/17 15:30:01;;;;;;;17.10;9.00;;;;;;;9.04;55.70;99873.92;116820;1185;22622;-91
2021/10/17 15:32:28;;;;;;;19.70;9.80;;;;;;;9.02;55.55;99874.18;116709;1177;23855;-92
2021/10/17 15:34:57;;;;;;;26.40;12.20;;;;;;;9.00;55.52;99875.34;116524;1192;136814;-89
2021/10/17 15:37:24;;;;;;;20.60;9.70;;;;;;;9.00;55.90;99878.48;116399;1195;22464;-90
2021/10/17 15:39:53;;;;;;;22.40;9.60;;;;;;;8.99;56.02;99880.70;116306;1194;138462;-93
2021/10/17 15:42:20;;;;;;;17.70;9.50;;;;;;;9.00;56.18;99880.40;117174;1187;22426;-93
2021/10/17 15:44:47;;;;;;;18.00;8.30;;;;;;;9.01;56.08;99882.05;116499;1195;23318;-90
2021/10/17 15:47:17;;;;;;;16.50;8.90;;;;;;;9.02;56.02;99883.55;116538;1194;135775;-91
2021/10/17 15:49:44;;;;;;;25.90;11.00;;;;;;;9.02;56.27;99886.85;116235;1194;23825;-91
2021/10/17 15:52:10;;;;;;;;;;;;;;;9.02;56.23;99887.73;116998;1191;138321;-91
2021/10/17 15:54:37;;;;;;;17.00;8.40;;;;;;;9.02;56.58;99888.77;118125;1192;22427;-91
2021/10/17 15:57:04;;;;;;;;;;;;;;;9.02;57.06;99888.77;117383;1193;22724;-91
2021/10/17 15:59:31;;;;;;;37.60;11.40;;;;;;;9.02;57.10;99889.86;116589;1193;123086;-91
2021/10/17 16:01:58;;;;;;;43.50;12.70;;;;;;;9.02;57.40;99890.77;116572;1193;22463;-91
2021/10/17 16:04:25;;;;;;;27.90;12.60;;;;;;;9.01;57.56;99889.00;116683;1177;137475;-91
2021/10/17 16:06:52;;;;;;;21.60;12.60;;;;;;;8.99;57.37;99887.06;116756;1192;22428;-91
2021/10/17 16:09:20;;;;;;;23.30;12.50;;;;;;;8.98;57.32;99887.91;116943;1189;137155;-91
2021/10/17 16:11:53;;;;;;;20.30;10.80;;;;;;;8.96;57.50;99885.20;117041;1168;24040;-91
2021/10/17 16:14:21;;;;;;;18.90;11.00;;;;;;;8.97;57.37;99892.00;117018;1177;22861;-90
2021/10/17 16:16:50;;;;;;;22.60;11.00;;;;;;;8.96;57.13;99891.27;116719;1190;136448;-90
2021/10/17 16:19:17;;;;;;;19.90;11.20;;;;;;;8.95;57.11;99888.22;116902;1184;22478;-91
2021/10/17 16:21:53;;;;;;;21.50;12.00;;;;;;;8.95;57.23;99889.36;116958;1189;137136;-92
2021/10/17 16:24:37;;;;;;;33.30;15.20;;;;;;;8.95;57.34;99887.73;116631;1190;22469;-91
2021/10/17 16:27:12;;;;;;;44.50;20.40;;;;;;;8.93;57.33;99885.89;117017;1187;25053;-94
2021/10/17 16:32:05;;;;;;;53.90;28.70;;;;;;;8.96;57.51;99890.21;110838;1213;545719;-55
2021/10/17 16:34:34;;;;;;;64.80;33.90;;;;;;;8.93;57.60;99886.50;116116;1205;136645;-56
2021/10/17 16:37:02;;;;;;;51.20;27.60;;;;;;;8.93;57.84;99889.01;116134;1205;22358;-55
2021/10/17 16:39:31;;;;;;;57.50;28.20;;;;;;;8.92;57.39;99886.27;116120;1205;22367;-55
2021/10/17 16:42:01;;;;;;;54.10;27.80;;;;;;;8.90;57.33;99889.05;116074;1204;137079;-54
2021/10/17 16:44:30;;;;;;;55.80;28.90;;;;;;;8.90;57.30;99883.70;116129;1205;22325;-55
2021/10/17 16:46:58;;;;;;;65.20;33.60;;;;;;;8.89;57.33;99886.80;115930;1182;137604;-55
2021/10/17 16:49:27;;;;;;;56.50;29.10;;;;;;;8.89;57.57;99885.72;116043;1205;23044;-55
2021/10/17 16:51:55;;;;;;;75.00;36.10;;;;;;;8.90;57.44;99886.80;116013;1205;137164;-55
2021/10/17 16:54:24;;;;;;;59.20;30.20;;;;;;;8.90;57.56;99889.52;116153;1204;22408;-55
2021/10/17 16:56:52;;;;;;;66.50;32.30;;;;;;;8.90;57.40;99889.48;116166;1204;22412;-55
2021/10/17 16:59:20;;;;;;;60.20;31.30;;;;;;;8.90;57.33;99888.22;116117;1204;137441;-55
2021/10/17 17:01:48;;;;;;;72.70;36.50;;;;;;;8.90;57.66;99894.44;116192;1203;22332;-55
2021/10/17 17:04:24;;;;;;;53.80;27.30;;;;;;;8.90;57.42;99896.86;116071;1203;137062;-55
2021/10/17 17:06:52;;;;;;;41.20;21.10;;;;;;;8.90;57.26;99896.59;116224;1203;23466;-55
2021/10/17 17:09:23;;;;;;;37.00;19.50;;;;;;;8.89;57.25;99893.59;116197;1204;22245;-55
2021/10/17 17:11:51;;;;;;;37.30;18.70;;;;;;;8.89;57.35;99893.96;116149;1204;138035;-54
2021/10/17 17:14:23;;;;;;;40.90;20.50;;;;;;;8.89;57.05;99889.88;116287;1197;22332;-55
2021/10/17 17:16:51;;;;;;;40.10;20.40;;;;;;;8.88;57.02;99890.30;116099;1203;137308;-55
2021/10/17 17:19:20;;;;;;;35.20;21.00;;;;;;;8.86;57.03;99889.02;116236;1190;22336;-55
2021/10/17 17:21:50;;;;;;;31.30;15.30;;;;;;;8.85;57.09;99886.49;116196;1203;137374;-55
2021/10/17 17:24:19;;;;;;;25.60;15.40;;;;;;;8.85;56.81;99882.58;116236;1204;22342;-55
2021/10/17 17:26:47;;;;;;;27.40;13.90;;;;;;;8.85;56.77;99886.80;116251;1204;22315;-55
2021/10/17 17:29:36;;;;;;;24.50;14.70;;;;;;;8.82;56.83;99884.89;116115;1204;137776;-55
2021/10/17 17:32:05;;;;;;;25.80;12.40;;;;;;;8.81;56.77;99884.60;116185;1205;22890;-55
2021/10/17 17:34:34;;;;;;;19.20;12.20;;;;;;;8.78;56.62;99883.68;115932;1205;138278;-55
2021/10/17 17:37:03;;;;;;;18.80;10.90;;;;;;;8.76;56.34;99886.09;116226;1205;22386;-55
2021/10/17 17:39:32;;;;;;;19.80;10.70;;;;;;;8.76;56.19;99884.39;115443;1203;22461;-55
2021/10/17 17:42:03;;;;;;;24.70;12.00;;;;;;;8.75;56.10;99881.85;115973;1204;136822;-55
2021/10/17 17:44:31;;;;;;;22.90;10.70;;;;;;;8.74;56.06;99882.23;116776;1193;22519;-55
2021/10/17 17:47:02;;;;;;;20.00;12.20;;;;;;;8.72;56.07;99879.68;116759;1198;137233;-55
2021/10/17 17:49:30;;;;;;;23.50;10.70;;;;;;;8.74;56.09;99882.49;116813;1198;23154;-55
2021/10/17 17:51:59;;;;;;;19.40;9.50;;;;;;;8.75;55.87;99885.83;116686;1198;137200;-55
2021/10/17 17:54:27;;;;;;;24.60;11.30;;;;;;;8.74;55.62;99886.71;116994;1199;22315;-55
2021/10/17 17:56:55;;;;;;;23.50;10.60;;;;;;;8.73;55.93;99885.94;116899;1199;22247;-55
2021/10/17 17:59:24;;;;;;;15.60;9.20;;;;;;;8.73;55.78;99883.22;116633;1199;137073;-55
2021/10/17 18:01:55;;;;;;;15.00;9.10;;;;;;;8.70;55.79;99882.77;116768;1199;22343;-55
2021/10/17 18:04:28;;;;;;;20.20;8.80;;;;;;;8.67;55.61;99883.63;116689;1199;136998;-54
2021/10/17 18:06:57;;;;;;;20.20;8.10;;;;;;;8.65;55.68;99881.70;116866;1198;22235;-55
2021/10/17 18:09:26;;;;;;;20.70;10.10;;;;;;;8.63;55.61;99880.83;116821;1199;22329;-55